Time;durP1;ratioP1;P1;durP2;ratioP2;P2;SDS_P1;SDS_P2;PMS_P1;PMS_P2;Temp;Humidity;BMP_temperature;BMP_pressure;BME280_temperature;BME280_humidity;BME280_pressure;Samples;Min_cycle;Max_cycle;Signal;HPM_P1;HPM_P2
2022/09/18 00:01:09;;;;;;;3.65;1.00;;;10.40;99.90;;;;;;5072376;28;20201;-62
2022/09/18 00:03:36;;;;;;;3.10;1.65;;;10.30;99.90;;;;;;5071409;28;20204;-62
2022/09/18 00:06:09;;;;;;;7.93;3.78;;;10.30;99.90;;;;;;5072913;28;20663;-63
2022/09/18 00:08:37;;;;;;;8.02;4.35;;;10.40;99.90;;;;;;5071690;28;20217;-62
2022/09/18 00:11:06;;;;;;;2.80;1.40;;;10.30;99.90;;;;;;5072559;28;20194;-62
2022/09/18 00:13:34;;;;;;;5.07;1.40;;;10.30;99.90;;;;;;5072189;28;20590;-63
2022/09/18 00:16:01;;;;;;;5.35;1.40;;;10.30;99.90;;;;;;5072447;28;20194;-63
2022/09/18 00:18:28;;;;;;;6.57;1.38;;;10.30;99.90;;;;;;5072714;28;20278;-63
2022/09/18 00:20:55;;;;;;;3.92;1.50;;;10.40;99.90;;;;;;5072237;28;20210;-62
2022/09/18 00:23:24;;;;;;;4.43;1.00;;;10.40;99.90;;;;;;5072472;28;20182;-62
2022/09/18 00:25:51;;;;;;;4.00;1.00;;;10.40;99.90;;;;;;5072235;28;20185;-63
2022/09/18 00:28:18;;;;;;;6.28;1.33;;;10.40;99.90;;;;;;5072059;28;20243;-62
2022/09/18 00:30:45;;;;;;;8.07;5.35;;;10.40;99.90;;;;;;5071960;28;20190;-62
2022/09/18 00:33:12;;;;;;;2.80;1.27;;;10.40;99.90;;;;;;5071792;28;20243;-62
2022/09/18 00:35:42;;;;;;;4.72;1.13;;;10.40;99.90;;;;;;5070819;28;20213;-63
2022/09/18 00:38:10;;;;;;;2.20;1.08;;;10.40;99.90;;;;;;5071565;28;20241;-62
2022/09/18 00:40:39;;;;;;;2.25;0.90;;;10.40;99.90;;;;;;5072025;28;20194;-62
2022/09/18 00:43:27;;;;;;;2.90;1.42;;;10.40;99.90;;;;;;5072899;28;20539;-63
2022/09/18 00:45:57;;;;;;;3.20;1.00;;;10.40;99.90;;;;;;5068412;28;20596;-62
2022/09/18 00:48:30;;;;;;;2.75;1.13;;;10.30;99.90;;;;;;5071560;28;20247;-63
2022/09/18 00:50:59;;;;;;;2.22;1.10;;;10.40;99.90;;;;;;5072205;28;20254;-63
2022/09/18 00:53:27;;;;;;;2.10;0.88;;;10.40;99.90;;;;;;5072238;28;20182;-62
2022/09/18 00:55:58;;;;;;;2.85;1.02;;;10.40;99.90;;;;;;5071630;28;20185;-62
2022/09/18 00:58:25;;;;;;;1.65;0.85;;;10.40;99.90;;;;;;5072366;28;20557;-62
2022/09/18 01:00:54;;;;;;;3.25;1.10;;;10.40;99.90;;;;;;5071869;28;20185;-62
2022/09/18 01:03:21;;;;;;;3.90;1.00;;;10.40;99.90;;;;;;5071643;28;20215;-62
2022/09/18 01:06:03;;;;;;;2.58;1.17;;;10.30;99.90;;;;;;5071286;28;20185;-62
2022/09/18 01:08:39;;;;;;;4.15;1.55;;;10.20;99.90;;;;;;5070106;28;20190;-63
2022/09/18 01:11:22;;;;;;;3.45;1.35;;;10.20;99.90;;;;;;5071680;28;20193;-63
2022/09/18 01:13:59;;;;;;;2.80;0.85;;;10.20;99.90;;;;;;5070641;28;20197;-63
2022/09/18 01:16:32;;;;;;;3.53;2.00;;;10.10;99.90;;;;;;5071266;28;20258;-63
2022/09/18 01:19:12;;;;;;;3.92;1.60;;;10.00;99.90;;;;;;5070506;28;20510;-62
2022/09/18 01:21:45;;;;;;;3.45;1.35;;;10.00;99.90;;;;;;5071364;28;20692;-62
2022/09/18 01:24:36;;;;;;;4.65;2.20;;;10.00;99.90;;;;;;5072021;28;20592;-62
2022/09/18 01:27:09;;;;;;;3.65;1.33;;;10.00;99.90;;;;;;5071294;28;20625;-63
2022/09/18 01:29:45;;;;;;;3.03;1.23;;;10.00;99.90;;;;;;5071853;28;20292;-62
2022/09/18 01:32:22;;;;;;;6.25;1.05;;;9.90;99.90;;;;;;5071775;28;20185;-63
2022/09/18 01:34:56;;;;;;;5.82;1.45;;;9.90;99.90;;;;;;5070970;28;20251;-64
2022/09/18 01:37:32;;;;;;;3.05;1.60;;;9.90;99.90;;;;;;5071686;28;20640;-62
2022/09/18 01:40:06;;;;;;;3.13;1.48;;;9.90;99.90;;;;;;5070415;28;20643;-63
2022/09/18 01:42:36;;;;;;;3.28;1.30;;;9.90;99.90;;;;;;5071777;28;20197;-62
2022/09/18 01:45:10;;;;;;;5.10;2.50;;;9.90;99.90;;;;;;5070830;28;20189;-63
2022/09/18 01:47:44;;;;;;;5.40;4.40;;;9.90;99.90;;;;;;5071433;28;20190;-62
2022/09/18 01:50:14;;;;;;;3.10;1.77;;;9.90;99.90;;;;;;5070748;28;20184;-62
2022/09/18 01:52:45;;;;;;;2.00;1.20;;;9.90;99.90;;;;;;5075224;28;20273;-62
2022/09/18 01:55:18;;;;;;;3.67;1.70;;;9.90;99.90;;;;;;5057813;28;20200;-62
2022/09/18 01:57:52;;;;;;;5.93;1.20;;;9.90;99.90;;;;;;5075593;28;20221;-62
2022/09/18 02:00:21;;;;;;;3.45;1.10;;;10.00;99.90;;;;;;5074950;28;20182;-62
2022/09/18 02:02:52;;;;;;;3.75;1.60;;;10.00;99.90;;;;;;5075443;28;20251;-62
2022/09/18 02:05:24;;;;;;;4.05;1.40;;;10.00;99.90;;;;;;5074098;28;20196;-62
2022/09/18 02:08:06;;;;;;;3.08;1.20;;;10.00;99.90;;;;;;5074431;28;20640;-62
2022/09/18 02:10:38;;;;;;;3.67;1.40;;;10.00;99.90;;;;;;5073189;28;20243;-62
2022/09/18 02:13:08;;;;;;;5.45;1.70;;;10.00;99.90;;;;;;5075142;28;20225;-62
2022/09/18 02:15:40;;;;;;;2.45;1.35;;;10.10;99.90;;;;;;5074890;28;20209;-63
2022/09/18 02:18:12;;;;;;;3.70;1.40;;;10.10;99.90;;;;;;5074204;28;20703;-63
2022/09/18 02:20:44;;;;;;;3.13;1.15;;;10.10;99.90;;;;;;5074922;28;20193;-62
2022/09/18 02:23:12;;;;;;;5.13;1.20;;;10.10;99.90;;;;;;5074574;28;20561;-62
2022/09/18 02:25:43;;;;;;;3.10;1.25;;;10.20;99.90;;;;;;5068259;28;20189;-62
2022/09/18 02:28:14;;;;;;;4.07;1.30;;;10.10;99.90;;;;;;5072229;28;20189;-62
2022/09/18 02:30:43;;;;;;;3.42;1.40;;;10.20;99.90;;;;;;5069831;28;20598;-62
2022/09/18 02:33:24;;;;;;;3.47;1.30;;;10.10;99.90;;;;;;5073711;28;20185;-62
2022/09/18 02:36:04;;;;;;;3.90;1.33;;;10.20;99.90;;;;;;5073122;28;20703;-62
2022/09/18 02:38:40;;;;;;;5.40;1.77;;;10.20;99.90;;;;;;5073160;28;20216;-62
2022/09/18 02:41:15;;;;;;;2.00;0.98;;;10.30;99.90;;;;;;5071764;28;20189;-62
2022/09/18 02:43:53;;;;;;;4.40;1.25;;;10.20;99.90;;;;;;5073451;28;20674;-62
2022/09/18 02:46:32;;;;;;;6.18;1.55;;;10.30;99.90;;;;;;5062904;28;20201;-62
2022/09/18 02:49:10;;;;;;;3.08;1.48;;;10.30;99.90;;;;;;5068232;28;21171;-63
2022/09/18 02:51:46;;;;;;;5.20;1.25;;;10.30;99.90;;;;;;5067880;28;20193;-62
2022/09/18 02:54:20;;;;;;;5.07;1.50;;;10.30;99.90;;;;;;5073776;28;20185;-63
2022/09/18 02:56:52;;;;;;;3.17;1.30;;;10.30;99.90;;;;;;5060077;28;20583;-63
2022/09/18 02:59:24;;;;;;;5.13;1.10;;;10.30;99.90;;;;;;5074212;28;20221;-63
2022/09/18 03:01:54;;;;;;;3.05;1.52;;;10.30;99.90;;;;;;5072913;28;20225;-62
2022/09/18 03:04:24;;;;;;;2.00;1.08;;;10.30;99.90;;;;;;5073980;28;20247;-62
2022/09/18 03:06:52;;;;;;;3.03;1.20;;;10.30;99.90;;;;;;5072748;28;20244;-62
2022/09/18 03:09:20;;;;;;;7.95;1.80;;;10.30;99.90;;;;;;5073762;28;20670;-63
2022/09/18 03:11:48;;;;;;;2.00;1.00;;;10.40;99.90;;;;;;5070762;28;20699;-62
2022/09/18 03:14:15;;;;;;;2.67;1.02;;;10.40;99.90;;;;;;5074101;28;20194;-62
2022/09/18 03:16:42;;;;;;;4.10;1.42;;;10.40;99.90;;;;;;5073461;28;20247;-62
2022/09/18 03:19:13;;;;;;;3.05;1.05;;;10.40;99.90;;;;;;5073292;28;20245;-62
2022/09/18 03:21:40;;;;;;;6.22;1.30;;;10.40;99.90;;;;;;5072734;28;20190;-63
2022/09/18 03:24:07;;;;;;;2.45;1.33;;;10.40;99.90;;;;;;5073616;28;20550;-63
2022/09/18 03:26:34;;;;;;;3.15;1.00;;;10.40;99.90;;;;;;5073565;28;20656;-62
2022/09/18 03:29:01;;;;;;;3.42;1.08;;;10.40;99.90;;;;;;5070785;28;20190;-63
2022/09/18 03:31:28;;;;;;;2.80;1.23;;;10.50;99.90;;;;;;5069286;28;20235;-63
2022/09/18 03:33:55;;;;;;;3.30;1.50;;;10.50;99.90;;;;;;5073497;28;20186;-62
2022/09/18 03:36:23;;;;;;;4.63;1.20;;;10.50;99.90;;;;;;5072962;28;20563;-63
2022/09/18 03:38:50;;;;;;;5.30;1.30;;;10.50;99.90;;;;;;5073222;28;20213;-63
2022/09/18 03:41:18;;;;;;;4.05;1.23;;;10.40;99.90;;;;;;5071402;28;20724;-63
2022/09/18 03:43:45;;;;;;;2.13;0.90;;;10.50;99.90;;;;;;5073138;28;20190;-63
2022/09/18 03:46:12;;;;;;;3.10;1.13;;;10.50;99.90;;;;;;5073447;28;20186;-62
2022/09/18 03:48:39;;;;;;;2.15;1.08;;;10.50;99.90;;;;;;5072556;28;20193;-62
2022/09/18 03:51:06;;;;;;;1.80;1.00;;;10.50;99.90;;;;;;5072908;28;20185;-63
2022/09/18 03:53:35;;;;;;;3.58;1.25;;;10.50;99.90;;;;;;5072690;28;20528;-63
2022/09/18 03:56:02;;;;;;;3.17;1.00;;;10.50;99.90;;;;;;5072922;28;20190;-63
2022/09/18 03:58:29;;;;;;;5.75;1.15;;;10.50;99.90;;;;;;5072650;28;20229;-62
2022/09/18 04:00:56;;;;;;;3.13;1.15;;;10.50;99.90;;;;;;5057490;28;20182;-63
2022/09/18 04:03:24;;;;;;;4.25;1.88;;;10.50;99.90;;;;;;5073331;28;20578;-63
2022/09/18 04:05:50;;;;;;;3.65;1.23;;;10.50;99.90;;;;;;5072797;28;20644;-64
2022/09/18 04:08:18;;;;;;;3.45;1.02;;;10.40;99.90;;;;;;5073304;28;20244;-63
2022/09/18 04:10:48;;;;;;;3.55;1.50;;;10.40;99.90;;;;;;5072929;28;20186;-63
2022/09/18 04:13:16;;;;;;;2.88;1.08;;;10.50;99.90;;;;;;5070164;28;20204;-62
2022/09/18 04:15:44;;;;;;;2.97;1.10;;;10.50;99.90;;;;;;5053095;28;20252;-63
2022/09/18 04:18:11;;;;;;;3.88;1.33;;;10.50;99.90;;;;;;5065832;28;20676;-63
2022/09/18 04:20:38;;;;;;;3.25;1.33;;;10.50;99.90;;;;;;5072221;28;20717;-63
2022/09/18 04:23:06;;;;;;;2.75;1.33;;;10.50;99.90;;;;;;5072096;28;20191;-63
2022/09/18 04:25:33;;;;;;;5.10;1.35;;;10.50;99.90;;;;;;5072571;28;20188;-63
2022/09/18 04:28:02;;;;;;;3.15;1.10;;;10.50;99.90;;;;;;5072568;28;20186;-63
2022/09/18 04:30:29;;;;;;;2.85;1.20;;;10.50;99.90;;;;;;5072782;28;20322;-64
2022/09/18 04:32:56;;;;;;;2.70;1.13;;;10.50;99.90;;;;;;5072799;28;20680;-63
2022/09/18 04:35:23;;;;;;;2.15;0.90;;;10.50;99.90;;;;;;5072093;28;20267;-63
2022/09/18 04:37:50;;;;;;;3.15;1.10;;;10.40;99.90;;;;;;5072752;28;20193;-63
2022/09/18 04:40:18;;;;;;;3.05;1.45;;;10.40;99.90;;;;;;5070962;28;20594;-63
2022/09/18 04:42:45;;;;;;;2.35;1.25;;;10.40;99.90;;;;;;5071841;28;20186;-63
2022/09/18 04:45:13;;;;;;;4.70;2.42;;;10.40;99.90;;;;;;5072622;28;20224;-64
2022/09/18 04:47:40;;;;;;;3.85;1.20;;;10.40;99.90;;;;;;5072408;28;20271;-63
2022/09/18 04:50:09;;;;;;;4.15;1.08;;;10.40;99.90;;;;;;5072496;28;20178;-62
2022/09/18 04:52:36;;;;;;;2.45;1.15;;;10.40;99.90;;;;;;5071883;28;20196;-63
2022/09/18 04:55:04;;;;;;;3.05;1.10;;;10.40;99.90;;;;;;5071963;28;20213;-63
2022/09/18 04:57:31;;;;;;;2.97;1.00;;;10.40;99.90;;;;;;5072220;28;20194;-64
2022/09/18 04:59:58;;;;;;;1.92;1.20;;;10.40;99.90;;;;;;5072469;28;20205;-64
2022/09/18 05:02:27;;;;;;;2.70;1.23;;;10.40;99.90;;;;;;5072110;28;20186;-64
2022/09/18 05:04:54;;;;;;;4.05;1.10;;;10.40;99.90;;;;;;5072187;28;20182;-63
2022/09/18 05:07:21;;;;;;;3.90;1.20;;;10.50;99.90;;;;;;5072728;28;20225;-63
2022/09/18 05:09:49;;;;;;;5.38;1.90;;;10.50;99.90;;;;;;5071937;28;20247;-64
2022/09/18 05:12:16;;;;;;;2.42;1.50;;;10.50;99.90;;;;;;5070487;28;20644;-62
2022/09/18 05:14:43;;;;;;;3.25;1.92;;;10.40;99.90;;;;;;5071815;28;20247;-64
2022/09/18 05:17:10;;;;;;;4.32;2.70;;;10.40;99.90;;;;;;5071843;28;20201;-63
2022/09/18 05:19:39;;;;;;;5.57;2.35;;;10.40;99.90;;;;;;5071838;28;20221;-63
2022/09/18 05:22:06;;;;;;;3.83;1.90;;;10.40;99.90;;;;;;5056845;28;20178;-63
2022/09/18 05:24:33;;;;;;;4.22;1.45;;;10.40;99.90;;;;;;5070769;28;20186;-63
2022/09/18 05:27:00;;;;;;;2.20;1.17;;;10.30;99.90;;;;;;5075222;28;20217;-63
2022/09/18 05:29:27;;;;;;;3.15;1.23;;;10.30;99.90;;;;;;5076382;28;20185;-64
2022/09/18 05:31:54;;;;;;;3.22;1.65;;;10.30;99.90;;;;;;5076424;28;20604;-63
2022/09/18 05:34:21;;;;;;;2.50;1.30;;;10.30;99.90;;;;;;5076384;28;20255;-64
2022/09/18 05:36:50;;;;;;;4.43;1.20;;;10.30;99.90;;;;;;5075537;28;20271;-63
2022/09/18 05:39:17;;;;;;;2.05;1.30;;;10.30;99.90;;;;;;5073007;28;20217;-64
2022/09/18 05:41:44;;;;;;;2.88;1.40;;;10.30;99.90;;;;;;5069517;28;20196;-63
2022/09/18 05:44:11;;;;;;;2.92;1.52;;;10.40;99.90;;;;;;5073557;28;20193;-63
2022/09/18 05:46:38;;;;;;;5.75;1.45;;;10.40;99.90;;;;;;5074136;28;20193;-63
2022/09/18 05:49:06;;;;;;;2.40;1.30;;;10.40;99.90;;;;;;5074022;28;20197;-64
2022/09/18 05:51:33;;;;;;;2.88;1.35;;;10.50;99.90;;;;;;5069324;28;20193;-63
2022/09/18 05:54:01;;;;;;;3.85;1.20;;;10.50;99.90;;;;;;5071185;28;20205;-63
2022/09/18 05:56:28;;;;;;;4.18;1.50;;;10.50;99.90;;;;;;5074227;28;20190;-63
2022/09/18 05:58:56;;;;;;;2.47;1.40;;;10.60;99.90;;;;;;5073434;28;20769;-63
2022/09/18 06:01:23;;;;;;;3.22;1.50;;;10.60;99.90;;;;;;5073954;28;20209;-63
2022/09/18 06:03:50;;;;;;;5.38;1.80;;;10.60;99.90;;;;;;5073459;28;20198;-63
2022/09/18 06:06:17;;;;;;;2.58;1.50;;;10.60;99.90;;;;;;5073846;28;20193;-63
2022/09/18 06:08:44;;;;;;;9.43;1.80;;;10.50;99.90;;;;;;5073018;28;20236;-64
2022/09/18 06:11:12;;;;;;;2.75;1.48;;;10.60;99.90;;;;;;5073833;28;20231;-64
2022/09/18 06:13:39;;;;;;;2.55;1.30;;;10.70;99.90;;;;;;5073219;28;20189;-63
2022/09/18 06:16:06;;;;;;;3.00;1.35;;;10.70;99.90;;;;;;5073901;28;20201;-63
2022/09/18 06:18:34;;;;;;;2.92;1.25;;;10.70;99.90;;;;;;5073028;28;20186;-63
2022/09/18 06:21:01;;;;;;;4.10;1.80;;;10.70;99.90;;;;;;5073597;28;20247;-64
2022/09/18 06:23:29;;;;;;;3.78;1.10;;;10.80;99.90;;;;;;5073088;28;20247;-63
2022/09/18 06:25:59;;;;;;;7.45;1.60;;;10.80;99.90;;;;;;5073480;28;20190;-64
2022/09/18 06:28:29;;;;;;;7.75;1.60;;;10.80;99.90;;;;;;5069594;28;20193;-64
2022/09/18 06:30:58;;;;;;;3.50;1.77;;;10.80;99.90;;;;;;5073554;28;20190;-64
2022/09/18 06:33:25;;;;;;;4.20;1.60;;;10.80;99.90;;;;;;5073029;28;20644;-63
2022/09/18 06:35:52;;;;;;;7.00;2.40;;;10.80;99.90;;;;;;5072927;28;20285;-63
2022/09/18 06:38:19;;;;;;;3.70;1.48;;;10.80;99.90;;;;;;5072817;28;20923;-63
2022/09/18 06:40:50;;;;;;;3.97;1.60;;;10.70;99.90;;;;;;5073249;28;20230;-63
2022/09/18 06:43:17;;;;;;;2.95;1.60;;;10.80;99.90;;;;;;5072428;28;20548;-63
2022/09/18 06:45:51;;;;;;;5.75;3.22;;;10.90;99.90;;;;;;5069141;28;20190;-63
2022/09/18 06:48:18;;;;;;;6.75;2.40;;;10.90;99.90;;;;;;5072515;28;20666;-63
2022/09/18 06:50:52;;;;;;;3.78;1.63;;;10.90;99.90;;;;;;5072961;28;20194;-63
2022/09/18 06:53:19;;;;;;;4.35;3.05;;;10.90;99.90;;;;;;5069241;28;20186;-63
2022/09/18 06:55:48;;;;;;;5.95;5.30;;;11.00;99.90;;;;;;5072464;28;20216;-63
2022/09/18 06:58:16;;;;;;;6.05;4.22;;;11.00;99.90;;;;;;5072707;28;20281;-63
2022/09/18 07:00:45;;;;;;;7.55;4.35;;;11.00;99.90;;;;;;5068386;28;20294;-62
2022/09/18 07:03:13;;;;;;;4.28;3.88;;;11.00;99.90;;;;;;5072622;28;20636;-63
2022/09/18 07:05:43;;;;;;;4.25;3.03;;;11.00;99.90;;;;;;5073365;28;20263;-63
2022/09/18 07:08:11;;;;;;;6.40;4.90;;;11.00;99.90;;;;;;5072280;28;20182;-63
2022/09/18 07:10:38;;;;;;;8.85;4.65;;;11.00;99.90;;;;;;5072515;28;20601;-62
2022/09/18 07:13:05;;;;;;;7.82;3.38;;;11.00;99.90;;;;;;5072130;28;20244;-63
2022/09/18 07:15:34;;;;;;;5.10;2.30;;;11.10;99.90;;;;;;5072462;28;20651;-63
2022/09/18 07:18:04;;;;;;;4.75;3.60;;;11.10;99.90;;;;;;5068626;28;20190;-62
2022/09/18 07:20:31;;;;;;;7.95;3.50;;;11.10;99.90;;;;;;5072561;28;20866;-64
2022/09/18 07:23:00;;;;;;;4.72;1.92;;;11.20;99.90;;;;;;5071557;28;20268;-63
2022/09/18 07:25:30;;;;;;;4.43;2.45;;;11.20;99.90;;;;;;5072107;28;20200;-63
2022/09/18 07:28:03;;;;;;;7.95;2.53;;;11.20;99.90;;;;;;5069795;28;20193;-64
2022/09/18 07:30:30;;;;;;;7.10;5.25;;;11.30;99.90;;;;;;5072114;28;20259;-64
2022/09/18 07:32:57;;;;;;;9.80;6.78;;;11.30;99.90;;;;;;5072447;28;20194;-63
2022/09/18 07:35:25;;;;;;;12.20;6.65;;;11.30;99.90;;;;;;5072391;28;20196;-64
2022/09/18 07:37:56;;;;;;;4.95;2.00;;;11.40;99.90;;;;;;5072246;28;20186;-63
2022/09/18 07:40:23;;;;;;;14.07;9.68;;;11.40;99.90;;;;;;5071719;28;20237;-64
2022/09/18 07:42:50;;;;;;;11.30;8.70;;;11.40;99.90;;;;;;5071764;28;20190;-63
2022/09/18 07:45:17;;;;;;;7.63;4.53;;;11.40;99.90;;;;;;5072515;28;20247;-63
2022/09/18 07:47:44;;;;;;;3.63;2.20;;;11.40;99.90;;;;;;5071167;28;20223;-62
2022/09/18 07:50:14;;;;;;;10.18;5.45;;;11.50;99.90;;;;;;5070849;28;20616;-63
2022/09/18 07:52:50;;;;;;;8.48;3.53;;;11.50;99.90;;;;;;5071547;28;20247;-63
2022/09/18 07:55:19;;;;;;;3.80;2.30;;;11.60;99.90;;;;;;5071475;28;20569;-63
2022/09/18 07:57:47;;;;;;;6.05;1.73;;;11.70;99.90;;;;;;5070401;28;20189;-63
2022/09/18 08:00:14;;;;;;;2.53;1.60;;;11.80;99.90;;;;;;5071722;28;20235;-63
2022/09/18 08:02:42;;;;;;;6.07;1.45;;;11.90;99.90;;;;;;5067963;28;20190;-63
2022/09/18 08:05:09;;;;;;;3.33;1.80;;;12.00;99.90;;;;;;5070364;28;20284;-64
2022/09/18 08:07:37;;;;;;;6.00;4.03;;;12.10;99.90;;;;;;5071558;28;20332;-63
2022/09/18 08:10:07;;;;;;;11.20;7.53;;;12.20;99.90;;;;;;5071234;28;20340;-63
2022/09/18 08:12:34;;;;;;;4.85;2.20;;;12.30;99.90;;;;;;5071238;28;20190;-64
2022/09/18 08:15:00;;;;;;;5.72;1.92;;;12.30;99.90;;;;;;5070887;28;20239;-63
2022/09/18 08:17:28;;;;;;;3.20;1.13;;;12.40;99.90;;;;;;5070249;28;20277;-62
2022/09/18 08:19:54;;;;;;;5.43;2.10;;;12.50;99.90;;;;;;5071329;28;20259;-63
2022/09/18 08:22:21;;;;;;;2.73;1.90;;;12.60;99.90;;;;;;5070666;28;20527;-63
2022/09/18 08:24:48;;;;;;;7.07;5.63;;;12.80;99.90;;;;;;5068577;28;21203;-63
2022/09/18 08:27:16;;;;;;;3.92;2.33;;;13.00;99.90;;;;;;5070040;28;20942;-63
2022/09/18 08:29:43;;;;;;;3.40;2.13;;;13.10;99.90;;;;;;5071140;28;20280;-63
2022/09/18 08:32:15;;;;;;;10.53;5.47;;;13.10;99.90;;;;;;5070518;28;20535;-64
2022/09/18 08:34:42;;;;;;;7.27;2.87;;;13.20;99.90;;;;;;5066149;28;20577;-64
2022/09/18 08:37:09;;;;;;;2.87;1.60;;;13.20;99.90;;;;;;5070400;28;20563;-63
2022/09/18 08:39:36;;;;;;;2.77;1.47;;;13.30;99.90;;;;;;5070192;28;20559;-63
2022/09/18 08:42:13;;;;;;;12.77;10.90;;;13.40;99.90;;;;;;5070685;28;20480;-63
2022/09/18 08:44:47;;;;;;;10.60;5.50;;;13.50;99.80;;;;;;5070332;28;20444;-63
2022/09/18 08:47:20;;;;;;;4.17;2.57;;;13.60;99.80;;;;;;5070367;28;20881;-63
2022/09/18 08:49:51;;;;;;;3.40;1.37;;;13.60;99.80;;;;;;5070413;28;20458;-63
2022/09/18 08:52:21;;;;;;;6.27;4.07;;;13.70;99.80;;;;;;5070837;28;20432;-63
2022/09/18 08:54:54;;;;;;;3.87;2.40;;;13.70;99.50;;;;;;5070581;28;20440;-63
2022/09/18 08:57:25;;;;;;;7.07;2.63;;;13.70;99.90;;;;;;5070958;28;20531;-63
2022/09/18 08:59:56;;;;;;;12.07;9.93;;;13.70;99.20;;;;;;5069971;28;21029;-63
2022/09/18 09:02:37;;;;;;;3.20;2.03;;;13.70;99.10;;;;;;5067340;28;20779;-63
2022/09/18 09:05:08;;;;;;;9.17;5.33;;;13.70;99.00;;;;;;5069594;28;20463;-64
2022/09/18 09:08:03;;;;;;;6.90;3.37;;;13.90;99.50;;;;;;5070272;28;20459;-64
2022/09/18 09:10:41;;;;;;;4.30;2.40;;;13.90;98.60;;;;;;5067653;28;20509;-63
2022/09/18 09:13:50;;;;;;;6.43;5.43;;;14.00;98.60;;;;;;5069397;28;20479;-64
2022/09/18 09:16:25;;;;;;;4.40;2.60;;;14.10;98.30;;;;;;5061938;28;20474;-63
2022/09/18 09:18:59;;;;;;;2.87;1.47;;;14.00;97.20;;;;;;5069603;28;20436;-64
2022/09/18 09:21:42;;;;;;;3.90;1.70;;;13.90;97.00;;;;;;5065935;28;20476;-65
2022/09/18 09:24:25;;;;;;;6.30;3.77;;;13.90;96.30;;;;;;5070125;28;20535;-63
2022/09/18 09:26:54;;;;;;;5.80;5.20;;;14.00;96.90;;;;;;5069285;28;20488;-64
2022/09/18 09:29:25;;;;;;;3.67;2.07;;;14.00;96.10;;;;;;5070583;28;20532;-63
2022/09/18 09:31:57;;;;;;;3.60;3.13;;;14.00;96.70;;;;;;5069997;28;20513;-63
2022/09/18 09:34:29;;;;;;;3.97;2.23;;;14.00;95.50;;;;;;5069795;28;20526;-64
2022/09/18 09:36:58;;;;;;;5.83;2.30;;;14.00;96.50;;;;;;5069680;28;20546;-64
2022/09/18 09:39:30;;;;;;;4.23;1.60;;;14.10;96.40;;;;;;5070179;28;20527;-63
2022/09/18 09:42:02;;;;;;;3.33;1.50;;;14.20;96.50;;;;;;5069935;28;20922;-64
2022/09/18 09:44:35;;;;;;;4.37;1.57;;;14.30;96.90;;;;;;5070066;28;20436;-65
2022/09/18 09:47:17;;;;;;;4.10;1.70;;;14.40;96.00;;;;;;5068622;28;20751;-63
2022/09/18 09:49:56;;;;;;;4.00;1.60;;;14.60;95.60;;;;;;5067914;28;20452;-64
2022/09/18 09:52:28;;;;;;;2.83;1.30;;;14.70;95.20;;;;;;5069531;28;20447;-63
2022/09/18 09:54:57;;;;;;;2.03;0.77;;;14.90;95.40;;;;;;5070867;28;21613;-63
2022/09/18 09:57:32;;;;;;;2.23;1.00;;;15.00;94.40;;;;;;5069448;28;20798;-63
2022/09/18 10:00:11;;;;;;;3.57;1.03;;;14.90;94.10;;;;;;5066872;28;20829;-63
2022/09/18 10:03:01;;;;;;;3.80;2.00;;;14.80;93.60;;;;;;5069610;28;20439;-64
2022/09/18 10:05:33;;;;;;;3.93;1.43;;;14.80;93.90;;;;;;5068694;28;20432;-63
2022/09/18 10:08:06;;;;;;;2.47;0.93;;;14.80;94.30;;;;;;5066522;28;20839;-63
2022/09/18 10:10:40;;;;;;;3.03;1.13;;;14.80;94.10;;;;;;5069866;28;20801;-63
2022/09/18 10:13:15;;;;;;;22.43;13.00;;;15.00;94.30;;;;;;5073035;28;20438;-63
2022/09/18 10:15:44;;;;;;;5.43;1.17;;;15.30;95.10;;;;;;5073427;28;20850;-63
2022/09/18 10:18:17;;;;;;;4.30;1.13;;;15.60;94.50;;;;;;5073747;28;20447;-65
2022/09/18 10:20:46;;;;;;;2.50;0.83;;;15.80;93.30;;;;;;5071288;28;20471;-63
2022/09/18 10:23:21;;;;;;;2.87;0.90;;;16.00;93.20;;;;;;5072388;28;20467;-64
2022/09/18 10:25:52;;;;;;;3.73;1.17;;;16.00;92.30;;;;;;5069509;28;20455;-63
2022/09/18 10:28:20;;;;;;;3.53;1.40;;;16.10;92.20;;;;;;5072856;28;20466;-63
2022/09/18 10:30:59;;;;;;;3.63;2.23;;;16.20;92.10;;;;;;5070004;28;20444;-63
2022/09/18 10:33:36;;;;;;;4.80;3.57;;;16.30;92.00;;;;;;5071697;28;20498;-63
2022/09/18 10:36:10;;;;;;;3.27;1.97;;;16.40;90.70;;;;;;5071768;28;20466;-64
2022/09/18 10:38:38;;;;;;;3.83;1.27;;;16.50;91.90;;;;;;5070385;28;20840;-63
2022/09/18 10:41:30;;;;;;;4.47;3.23;;;16.50;90.10;;;;;;5070663;28;20475;-63
2022/09/18 10:44:07;;;;;;;3.50;1.03;;;16.70;91.20;;;;;;5070998;28;20530;-63
2022/09/18 10:46:36;;;;;;;7.30;1.30;;;16.80;89.80;;;;;;5072373;28;20439;-63
2022/09/18 10:49:23;;;;;;;10.53;2.80;;;16.80;90.00;;;;;;5072209;28;20448;-64
2022/09/18 10:52:15;;;;;;;6.50;2.97;;;16.90;90.00;;;;;;5072742;28;20448;-63
2022/09/18 10:55:11;;;;;;;11.67;7.73;;;16.80;90.20;;;;;;5069975;28;20953;-63
2022/09/18 10:57:42;;;;;;;3.87;2.57;;;16.80;88.80;;;;;;5071724;28;20936;-62
2022/09/18 11:00:43;;;;;;;3.60;2.50;;;16.70;88.30;;;;;;5071817;28;20478;-63
2022/09/18 11:03:33;;;;;;;3.97;1.40;;;16.70;87.30;;;;;;5067892;28;20443;-63
2022/09/18 11:06:04;;;;;;;10.63;4.70;;;17.00;89.50;;;;;;5068510;28;20523;-64
2022/09/18 11:08:35;;;;;;;7.00;3.90;;;17.10;88.20;;;;;;5067594;28;20436;-64
2022/09/18 11:11:05;;;;;;;8.77;5.00;;;17.20;87.60;;;;;;5070494;28;20495;-63
2022/09/18 11:13:43;;;;;;;2.80;1.20;;;17.20;85.70;;;;;;5069845;28;20502;-63
2022/09/18 11:16:12;;;;;;;5.00;1.40;;;17.20;84.30;;;;;;5070621;28;20515;-63
2022/09/18 11:18:39;;;;;;;4.17;2.50;;;17.30;86.30;;;;;;5071073;28;20444;-63
2022/09/18 11:21:08;;;;;;;7.50;5.30;;;17.40;87.10;;;;;;5070693;28;20484;-62
2022/09/18 11:23:37;;;;;;;9.00;4.40;;;17.50;85.20;;;;;;5062606;28;20927;-63
2022/09/18 11:26:26;;;;;;;9.17;4.43;;;17.60;81.90;;;;;;5065254;28;20950;-63
2022/09/18 11:29:05;;;;;;;2.87;1.13;;;17.60;84.10;;;;;;5069701;28;20447;-63
2022/09/18 11:31:41;;;;;;;5.23;2.30;;;17.70;82.50;;;;;;5069105;28;20930;-63
2022/09/18 11:34:20;;;;;;;7.60;4.20;;;17.60;82.50;;;;;;5070879;28;20501;-63
2022/09/18 11:36:51;;;;;;;12.23;2.40;;;17.70;82.50;;;;;;5069696;28;20483;-63
2022/09/18 11:39:23;;;;;;;3.67;1.67;;;17.80;82.00;;;;;;5068756;28;20833;-63
2022/09/18 11:41:52;;;;;;;4.67;2.50;;;18.10;81.70;;;;;;5070754;28;20601;-62
2022/09/18 11:44:26;;;;;;;2.07;0.80;;;18.50;80.30;;;;;;5069474;28;20496;-62
2022/09/18 11:47:20;;;;;;;3.33;1.00;;;18.60;77.70;;;;;;5070588;28;20455;-62
2022/09/18 11:49:57;;;;;;;22.97;13.80;;;18.90;78.20;;;;;;5069873;28;20433;-64
2022/09/18 11:52:30;;;;;;;43.03;28.20;;;19.20;76.10;;;;;;5070838;28;20450;-63
2022/09/18 11:55:06;;;;;;;9.17;5.37;;;19.30;73.50;;;;;;5069313;28;20453;-63
2022/09/18 11:57:39;;;;;;;9.30;5.00;;;19.70;69.50;;;;;;5070797;28;20438;-63
2022/09/18 12:00:11;;;;;;;44.93;24.20;;;20.50;64.70;;;;;;5070725;28;20443;-63
2022/09/18 12:02:44;;;;;;;10.00;8.93;;;21.70;47.10;;;;;;5047138;28;21021;-63
2022/09/18 12:05:22;;;;;;;2.60;1.97;;;21.50;45.00;;;;;;5040740;28;20473;-62
2022/09/18 12:07:59;;;;;;;9.50;8.73;;;20.70;45.10;;;;;;5028801;28;20446;-62
2022/09/18 12:10:37;;;;;;;4.20;1.20;;;19.90;46.00;;;;;;5026892;28;20541;-62
2022/09/18 12:13:21;;;;;;;3.60;3.30;;;19.30;48.40;;;;;;5028587;28;20438;-63
2022/09/18 12:15:53;;;;;;;3.60;1.53;;;18.70;48.50;;;;;;5024014;28;20445;-62
2022/09/18 12:18:25;;;;;;;3.50;2.20;;;18.30;52.00;;;;;;5026971;28;20447;-63
2022/09/18 12:20:58;;;;;;;2.20;1.40;;;18.70;56.60;;;;;;5031881;28;20524;-64
2022/09/18 12:23:27;;;;;;;4.87;4.20;;;20.00;54.70;;;;;;5033559;28;20931;-62
2022/09/18 12:26:19;;;;;;;2.90;1.50;;;20.30;52.80;;;;;;5022360;28;20463;-65
2022/09/18 12:29:01;;;;;;;3.23;1.70;;;20.30;51.70;;;;;;5030860;28;20439;-64
2022/09/18 12:31:37;;;;;;;3.50;1.10;;;21.80;52.10;;;;;;5028820;28;20462;-63
2022/09/18 12:34:12;;;;;;;1.80;0.70;;;23.80;48.90;;;;;;5028289;28;20807;-63
2022/09/18 12:37:07;;;;;;;2.50;1.00;;;26.00;48.30;;;;;;5029298;28;20511;-64
2022/09/18 12:39:59;;;;;;;2.57;1.90;;;27.80;41.50;;;;;;5029539;28;20440;-66
2022/09/18 12:42:39;;;;;;;4.40;1.40;;;27.20;37.00;;;;;;5024745;28;20485;-64
2022/09/18 12:45:44;;;;;;;3.17;1.70;;;26.20;38.90;;;;;;5027485;28;20449;-66
2022/09/18 12:48:29;;;;;;;5.20;1.67;;;26.70;39.80;;;;;;5011878;28;20449;-64
2022/09/18 12:51:18;;;;;;;1.80;0.70;;;27.00;36.50;;;;;;5025585;28;20447;-64
2022/09/18 12:53:57;;;;;;;4.37;0.70;;;26.90;38.60;;;;;;5024472;28;20453;-65
2022/09/18 12:56:50;;;;;;;2.37;0.63;;;26.50;36.20;;;;;;5027586;28;20444;-64
2022/09/18 12:59:52;;;;;;;2.03;0.80;;;26.40;36.10;;;;;;5024823;28;20536;-64
2022/09/18 13:02:38;;;;;;;1.93;0.73;;;25.90;35.60;;;;;;5020442;28;20474;-63
2022/09/18 13:05:12;;;;;;;2.10;0.80;;;24.90;35.40;;;;;;5023591;28;20452;-63
2022/09/18 13:07:43;;;;;;;4.93;0.90;;;24.10;37.00;;;;;;5025995;28;21024;-63
2022/09/18 13:10:18;;;;;;;2.00;0.70;;;23.80;38.80;;;;;;5026239;28;20875;-64